Time;durP1;ratioP1;P1;durP2;ratioP2;P2;SDS_P1;SDS_P2;PMS_P1;PMS_P2;Temp;Humidity;BMP_temperature;BMP_pressure;BME280_temperature;BME280_humidity;BME280_pressure;Samples;Min_cycle;Max_cycle;Signal;HPM_P1;HPM_P2
2023/03/17 05:31:17;;;;;;;5.82;3.83;;;12.90;74.60;;;;;;5570888;23;20149;-76
2023/03/17 05:33:45;;;;;;;9.70;4.32;;;12.90;74.60;;;;;;4993946;28;20033;-76
2023/03/17 05:36:10;;;;;;;10.60;4.72;;;12.80;74.60;;;;;;5018636;28;20076;-76
2023/03/17 05:38:36;;;;;;;7.82;3.85;;;12.90;74.50;;;;;;5012147;28;20022;-76
2023/03/17 05:41:02;;;;;;;8.32;4.25;;;12.90;74.20;;;;;;4998795;28;20035;-76
2023/03/17 05:43:28;;;;;;;7.97;4.38;;;12.90;74.10;;;;;;4981690;28;20065;-76
2023/03/17 05:45:54;;;;;;;14.95;4.55;;;12.90;74.10;;;;;;4998646;28;20058;-77
2023/03/17 05:48:20;;;;;;;6.60;3.70;;;12.90;74.30;;;;;;4998697;28;20038;-78
2023/03/17 05:50:46;;;;;;;9.32;3.65;;;13.00;74.30;;;;;;4998716;28;20061;-78
2023/03/17 05:53:11;;;;;;;9.70;5.25;;;12.90;74.50;;;;;;4981350;28;20129;-75
2023/03/17 05:55:37;;;;;;;9.10;4.50;;;13.00;74.40;;;;;;4998720;28;20026;-76
2023/03/17 05:58:05;;;;;;;7.38;3.75;;;12.90;74.50;;;;;;4998596;28;20077;-75
2023/03/17 06:00:31;;;;;;;8.02;4.00;;;13.00;74.40;;;;;;5000109;28;20485;-76
2023/03/17 06:02:57;;;;;;;7.93;4.03;;;13.00;74.20;;;;;;4987410;28;20030;-77
2023/03/17 06:05:22;;;;;;;7.93;4.35;;;13.10;74.00;;;;;;5000775;28;20436;-75
2023/03/17 06:07:48;;;;;;;8.25;3.78;;;13.00;74.20;;;;;;4996425;28;20064;-79
2023/03/17 06:10:14;;;;;;;10.77;4.13;;;13.10;74.20;;;;;;5003425;28;20080;-77
2023/03/17 06:12:40;;;;;;;10.27;4.15;;;13.00;74.30;;;;;;5018059;28;20029;-80
2023/03/17 06:15:08;;;;;;;6.13;3.75;;;13.00;74.40;;;;;;4992100;28;20081;-81
2023/03/17 06:17:34;;;;;;;9.90;4.35;;;13.00;74.30;;;;;;5005281;28;20026;-81
2023/03/17 06:20:00;;;;;;;6.50;4.35;;;13.00;74.20;;;;;;5006040;28;20038;-84
2023/03/17 06:22:26;;;;;;;7.93;4.20;;;13.00;74.30;;;;;;4998732;28;20036;-87
2023/03/17 06:24:52;;;;;;;6.25;4.40;;;13.00;74.20;;;;;;4981010;28;20030;-80
2023/03/17 06:27:18;;;;;;;8.13;3.90;;;13.10;74.20;;;;;;5008257;28;20033;-80
2023/03/17 06:29:44;;;;;;;7.55;4.15;;;13.00;74.20;;;;;;5021080;28;20041;-81
2023/03/17 06:32:10;;;;;;;5.97;3.53;;;13.00;74.10;;;;;;4986732;28;20125;-78
2023/03/17 06:34:36;;;;;;;6.07;3.80;;;13.00;74.20;;;;;;5016807;28;20097;-85
2023/03/17 06:37:02;;;;;;;9.38;3.95;;;13.10;74.10;;;;;;4998011;28;20034;-83
2023/03/17 06:39:27;;;;;;;11.73;4.15;;;13.00;74.20;;;;;;5013108;28;20037;-84
2023/03/17 06:41:53;;;;;;;10.32;4.53;;;13.00;74.40;;;;;;5008193;28;20041;-83
2023/03/17 06:44:19;;;;;;;8.40;4.65;;;13.00;74.40;;;;;;5010173;28;20461;-83
2023/03/17 06:46:44;;;;;;;8.82;4.20;;;12.90;74.60;;;;;;5006115;28;20064;-82
2023/03/17 06:49:12;;;;;;;9.65;5.13;;;12.80;74.90;;;;;;4997552;28;20545;-83
2023/03/17 06:51:38;;;;;;;8.68;4.93;;;12.80;75.10;;;;;;5003396;28;20018;-83
2023/03/17 06:54:05;;;;;;;9.43;4.72;;;12.70;75.30;;;;;;5017677;28;20026;-83
2023/03/17 06:56:31;;;;;;;9.20;4.55;;;12.60;75.80;;;;;;4997573;28;20029;-83
2023/03/17 06:58:57;;;;;;;8.27;5.15;;;12.60;75.60;;;;;;4980200;28;20052;-83
2023/03/17 07:01:24;;;;;;;9.93;4.25;;;12.60;75.80;;;;;;4997684;28;20062;-83
2023/03/17 07:03:49;;;;;;;7.38;4.60;;;12.60;75.90;;;;;;5013389;28;20034;-82
2023/03/17 07:06:15;;;;;;;10.73;5.32;;;12.60;75.80;;;;;;5008442;28;20500;-82
2023/03/17 07:08:41;;;;;;;13.80;5.97;;;12.70;75.90;;;;;;5017130;28;20461;-82
2023/03/17 07:11:07;;;;;;;15.52;5.28;;;12.60;76.00;;;;;;5014623;28;20033;-82
2023/03/17 07:13:34;;;;;;;11.13;5.40;;;12.70;75.80;;;;;;5016863;28;20472;-84
2023/03/17 07:16:01;;;;;;;12.73;5.75;;;12.80;75.70;;;;;;5002061;28;20022;-84
2023/03/17 07:18:30;;;;;;;8.88;4.00;;;12.80;75.20;;;;;;4994913;28;20280;-83
2023/03/17 07:20:57;;;;;;;8.95;4.75;;;12.90;74.90;;;;;;5008469;28;20477;-80
2023/03/17 07:23:23;;;;;;;7.70;4.18;;;13.00;74.80;;;;;;5005016;28;20034;-82
2023/03/17 07:25:50;;;;;;;8.73;4.95;;;13.00;74.70;;;;;;5016685;28;20058;-82
2023/03/17 07:28:16;;;;;;;11.77;4.60;;;13.10;74.60;;;;;;5017421;28;20469;-82
2023/03/17 07:30:45;;;;;;;11.45;4.55;;;13.10;74.30;;;;;;5020211;28;20136;-82
2023/03/17 07:33:12;;;;;;;10.27;3.95;;;13.10;74.30;;;;;;5009298;28;20045;-82
2023/03/17 07:35:38;;;;;;;14.80;7.50;;;12.90;74.80;;;;;;5036082;28;20022;-82
2023/03/17 07:38:04;;;;;;;10.68;4.95;;;12.90;74.80;;;;;;5033255;28;20030;-82
2023/03/17 07:40:30;;;;;;;9.95;5.72;;;12.80;75.10;;;;;;5016452;28;20511;-82
2023/03/17 07:42:56;;;;;;;10.05;5.07;;;12.70;75.70;;;;;;4999516;28;20479;-82
2023/03/17 07:45:22;;;;;;;13.10;5.85;;;12.70;75.90;;;;;;5016402;28;20021;-82
2023/03/17 07:47:47;;;;;;;8.70;5.80;;;12.70;76.00;;;;;;4992809;28;20034;-82
2023/03/17 07:50:14;;;;;;;8.75;4.63;;;12.50;76.50;;;;;;4991314;28;20030;-82
2023/03/17 07:52:40;;;;;;;9.80;5.13;;;12.50;76.80;;;;;;5010887;28;20104;-82
2023/03/17 07:55:09;;;;;;;11.70;6.28;;;12.40;76.80;;;;;;5013446;28;20026;-82
2023/03/17 07:57:35;;;;;;;9.50;5.50;;;12.40;76.90;;;;;;4996560;28;20050;-82
2023/03/17 08:00:03;;;;;;;7.15;5.32;;;12.40;76.80;;;;;;4996593;28;20032;-82
2023/03/17 08:02:28;;;;;;;7.13;5.03;;;12.50;76.80;;;;;;4983549;28;20037;-82
2023/03/17 08:04:55;;;;;;;8.48;5.57;;;12.50;76.80;;;;;;5013120;28;20044;-82
2023/03/17 08:07:21;;;;;;;10.10;5.22;;;12.40;76.80;;;;;;5020284;28;20494;-82
2023/03/17 08:09:46;;;;;;;8.55;4.72;;;12.40;77.30;;;;;;5014694;28;20496;-81
2023/03/17 08:12:13;;;;;;;8.63;4.82;;;12.50;77.10;;;;;;4992093;28;20129;-82
2023/03/17 08:14:40;;;;;;;11.30;5.40;;;12.50;76.80;;;;;;5006440;28;20022;-82
2023/03/17 08:17:06;;;;;;;6.80;4.38;;;12.50;76.80;;;;;;5015308;28;20093;-81
2023/03/17 08:19:32;;;;;;;10.40;4.72;;;12.50;77.00;;;;;;5016564;28;20034;-82
2023/03/17 08:21:58;;;;;;;8.00;4.15;;;12.60;76.90;;;;;;5003874;28;20109;-82
2023/03/17 08:24:25;;;;;;;13.85;5.38;;;12.70;76.50;;;;;;4988686;28;20018;-82
2023/03/17 08:26:51;;;;;;;9.55;4.38;;;12.70;76.40;;;;;;5013227;28;20393;-81
2023/03/17 08:29:17;;;;;;;12.73;5.22;;;12.70;76.60;;;;;;5033658;28;20021;-81
2023/03/17 08:31:43;;;;;;;9.80;5.05;;;12.80;76.30;;;;;;4977008;28;20601;-81
2023/03/17 08:34:09;;;;;;;8.48;5.32;;;12.80;76.50;;;;;;4960250;28;20023;-80
2023/03/17 08:36:35;;;;;;;7.15;4.50;;;12.80;76.30;;;;;;4959101;28;20050;-82
2023/03/17 08:39:03;;;;;;;8.07;5.03;;;12.70;76.40;;;;;;4976204;28;20022;-82
2023/03/17 08:41:29;;;;;;;17.65;8.02;;;12.60;76.80;;;;;;4976024;28;20027;-82
2023/03/17 08:43:57;;;;;;;13.32;6.60;;;12.60;77.10;;;;;;4980781;28;20110;-82
2023/03/17 08:46:27;;;;;;;8.95;5.63;;;12.50;76.80;;;;;;4964575;28;20031;-82
2023/03/17 08:48:55;;;;;;;;;;;12.60;76.90;;;;;;4972435;28;20031;-82
2023/03/17 08:51:23;;;;;;;9.18;5.45;;;12.60;77.10;;;;;;4975531;28;19912;-81
2023/03/17 08:53:50;;;;;;;10.07;5.55;;;12.60;76.80;;;;;;4960625;28;20035;-82
2023/03/17 08:56:16;;;;;;;8.15;5.35;;;12.70;76.90;;;;;;4978917;28;20109;-82
2023/03/17 08:58:43;;;;;;;9.70;5.28;;;12.60;77.10;;;;;;4958327;28;20088;-82
2023/03/17 09:01:10;;;;;;;9.25;5.93;;;12.60;77.30;;;;;;4974816;28;20389;-82
2023/03/17 09:03:38;;;;;;;8.27;4.97;;;12.50;77.40;;;;;;4955683;28;20034;-82
2023/03/17 09:06:05;;;;;;;11.27;5.70;;;12.50;77.40;;;;;;4989429;28;20077;-82
2023/03/17 09:08:33;;;;;;;18.80;6.03;;;12.60;77.60;;;;;;4984892;28;20041;-82
2023/03/17 09:11:00;;;;;;;12.32;6.22;;;12.60;77.70;;;;;;4962599;28;20066;-82
2023/03/17 09:13:26;;;;;;;9.52;5.35;;;12.60;77.90;;;;;;4976527;28;20037;-81
2023/03/17 09:15:52;;;;;;;12.20;5.53;;;12.60;78.20;;;;;;4993886;28;20026;-82
2023/03/17 09:18:18;;;;;;;9.50;4.55;;;12.80;77.90;;;;;;4993860;28;20117;-82
2023/03/17 09:20:44;;;;;;;8.45;5.53;;;12.80;77.80;;;;;;4973682;28;20061;-82
2023/03/17 09:23:10;;;;;;;6.75;4.28;;;13.10;77.30;;;;;;4994649;28;20037;-82
2023/03/17 09:25:37;;;;;;;8.30;5.22;;;13.70;76.50;;;;;;4980726;28;20033;-82
2023/03/17 09:28:04;;;;;;;8.38;3.53;;;15.00;74.30;;;;;;4982057;28;20073;-80
2023/03/17 09:30:30;;;;;;;5.38;4.70;;;16.40;69.10;;;;;;4989375;28;20053;-81
2023/03/17 09:32:56;;;;;;;6.60;3.33;;;17.40;66.70;;;;;;4997700;28;20045;-81
2023/03/17 09:35:22;;;;;;;7.20;3.28;;;17.60;64.40;;;;;;4998681;28;20097;-80
2023/03/17 09:37:48;;;;;;;7.05;3.90;;;17.20;63.90;;;;;;5014964;28;20054;-80
2023/03/17 09:40:18;;;;;;;7.38;3.75;;;18.10;62.30;;;;;;5017813;28;20095;-81
2023/03/17 09:42:50;;;;;;;;;;;19.50;60.40;;;;;;5018713;28;20488;-81
2023/03/17 09:45:22;;;;;;;7.22;3.65;;;20.60;56.40;;;;;;5011619;28;20378;-81
2023/03/17 09:48:07;;;;;;;5.28;2.85;;;21.30;55.50;;;;;;5001240;28;20026;-81
2023/03/17 09:51:00;;;;;;;10.07;3.40;;;21.80;54.10;;;;;;4997590;28;20036;-81
2023/03/17 09:53:46;;;;;;;9.05;2.83;;;22.30;51.50;;;;;;5002239;28;20050;-82
2023/03/17 09:56:14;;;;;;;6.07;3.08;;;22.50;50.00;;;;;;5012163;28;20080;-81
2023/03/17 09:58:46;;;;;;;6.10;2.50;;;22.40;49.70;;;;;;5000279;28;20117;-81
2023/03/17 10:01:12;;;;;;;4.90;2.50;;;21.70;51.40;;;;;;5011725;28;20033;-81
2023/03/17 10:03:38;;;;;;;9.57;2.38;;;20.40;53.80;;;;;;4993505;28;20034;-81
2023/03/17 10:06:35;;;;;;;7.60;2.70;;;19.60;56.40;;;;;;5016976;28;20021;-81
2023/03/17 10:09:23;;;;;;;8.40;3.22;;;19.20;58.40;;;;;;5018046;28;20041;-81
2023/03/17 10:12:29;;;;;;;6.00;2.30;;;19.40;58.60;;;;;;5014399;28;20396;-81
2023/03/17 10:15:24;;;;;;;7.15;2.47;;;19.80;57.80;;;;;;4976396;28;20077;-81
2023/03/17 10:17:51;;;;;;;6.38;2.55;;;19.30;58.70;;;;;;5000914;28;20401;-81
2023/03/17 10:20:29;;;;;;;5.93;1.90;;;19.20;59.40;;;;;;5008621;28;20087;-81
2023/03/17 10:23:02;;;;;;;9.10;2.20;;;18.80;60.50;;;;;;5008057;28;20022;-81
2023/03/17 10:25:31;;;;;;;6.07;1.77;;;18.40;61.20;;;;;;4989305;28;20083;-81
2023/03/17 10:28:10;;;;;;;5.13;2.10;;;18.30;61.90;;;;;;5002047;28;20026;-81
2023/03/17 10:30:36;;;;;;;4.55;1.63;;;18.20;62.50;;;;;;4983217;28;20123;-81
2023/03/17 10:33:05;;;;;;;3.78;1.42;;;18.20;62.80;;;;;;4999255;28;20492;-81
2023/03/17 10:35:34;;;;;;;7.90;1.70;;;18.40;63.40;;;;;;5011452;28;20481;-81
2023/03/17 10:38:12;;;;;;;6.13;1.80;;;18.60;62.30;;;;;;4999781;28;20109;-81
2023/03/17 10:40:38;;;;;;;5.15;2.08;;;18.50;62.40;;;;;;5014419;28;20269;-82
2023/03/17 10:43:09;;;;;;;5.22;1.35;;;18.60;61.80;;;;;;5009655;28;20393;-81
2023/03/17 10:45:37;;;;;;;5.75;1.60;;;18.50;62.80;;;;;;5010404;28;20462;-81
2023/03/17 10:48:08;;;;;;;6.25;1.65;;;18.60;62.50;;;;;;5011881;28;20044;-81
2023/03/17 10:50:36;;;;;;;4.15;1.48;;;18.70;62.20;;;;;;4999718;28;20049;-80
2023/03/17 10:53:02;;;;;;;4.35;1.60;;;18.80;62.00;;;;;;5009824;28;20088;-86
2023/03/17 10:55:32;;;;;;;4.45;1.58;;;18.80;61.90;;;;;;4995455;28;20031;-81
2023/03/17 10:58:03;;;;;;;4.88;2.15;;;18.80;62.00;;;;;;4997529;28;20068;-81
2023/03/17 11:00:33;;;;;;;3.45;1.50;;;18.60;62.00;;;;;;5011682;28;20150;-80
2023/03/17 11:03:08;;;;;;;4.05;1.45;;;18.50;62.70;;;;;;5008654;28;20018;-80
2023/03/17 11:05:37;;;;;;;4.30;1.70;;;18.50;62.90;;;;;;5011529;28;20041;-80
2023/03/17 11:08:16;;;;;;;4.37;1.63;;;18.20;62.50;;;;;;5014644;28;20578;-81
2023/03/17 11:10:43;;;;;;;4.68;1.60;;;18.20;62.80;;;;;;5015846;28;20264;-80
2023/03/17 11:13:14;;;;;;;4.63;1.40;;;18.40;63.30;;;;;;5014703;28;20107;-80
2023/03/17 11:15:47;;;;;;;3.60;1.42;;;18.50;62.50;;;;;;5012423;28;20026;-79
2023/03/17 11:18:14;;;;;;;5.10;1.58;;;18.60;62.80;;;;;;5004421;28;20742;-83
2023/03/17 11:20:55;;;;;;;4.75;2.25;;;18.50;62.60;;;;;;5009903;28;20022;-84
2023/03/17 11:23:26;;;;;;;3.25;1.40;;;18.10;62.30;;;;;;4998316;28;20026;-86
2023/03/17 11:26:16;;;;;;;2.25;1.30;;;17.80;62.80;;;;;;4980171;28;20034;-86
2023/03/17 11:28:49;;;;;;;4.25;1.58;;;17.70;63.10;;;;;;5002185;28;20492;-88
2023/03/17 11:31:31;;;;;;;8.57;2.40;;;17.50;63.90;;;;;;4998964;28;20050;-82
2023/03/17 11:34:07;;;;;;;6.65;2.83;;;17.50;63.90;;;;;;4992996;28;20053;-84
2023/03/17 11:36:54;;;;;;;3.90;1.60;;;17.70;64.60;;;;;;5019936;28;20021;-82
2023/03/17 11:39:26;;;;;;;3.53;1.52;;;17.70;64.50;;;;;;4997584;28;20022;-86
2023/03/17 11:42:06;;;;;;;3.25;1.45;;;17.70;64.30;;;;;;4997492;28;20038;-86
2023/03/17 11:45:09;;;;;;;8.77;2.00;;;17.80;64.00;;;;;;4999965;28;20044;-89
2023/03/17 11:47:51;;;;;;;5.50;1.48;;;18.00;62.60;;;;;;4944299;28;20525;-84
2023/03/17 11:50:25;;;;;;;6.32;1.50;;;18.30;63.90;;;;;;5009506;28;20029;-85
2023/03/17 11:53:03;;;;;;;5.65;2.35;;;18.30;61.70;;;;;;4995254;28;20038;-88
2023/03/17 11:55:38;;;;;;;7.45;1.88;;;18.50;62.50;;;;;;5016974;28;20081;-86
2023/03/17 11:58:25;;;;;;;4.75;1.52;;;18.50;60.00;;;;;;5016645;28;20050;-90
2023/03/17 12:00:55;;;;;;;5.25;1.02;;;18.60;58.20;;;;;;4998233;28;20014;-87
2023/03/17 12:03:35;;;;;;;;;;;18.70;58.80;;;;;;4999388;28;20030;-81
2023/03/17 12:06:07;;;;;;;4.13;1.40;;;18.80;58.10;;;;;;5014417;28;19932;-81
2023/03/17 12:08:36;;;;;;;3.83;1.35;;;18.80;56.40;;;;;;5016421;28;20295;-78
2023/03/17 12:11:07;;;;;;;5.07;1.10;;;18.80;57.90;;;;;;5015836;28;20029;-84
2023/03/17 12:13:45;;;;;;;2.45;1.00;;;18.80;58.60;;;;;;5012914;28;20030;-77
2023/03/17 12:16:37;;;;;;;4.28;1.27;;;18.90;57.70;;;;;;5003255;28;20017;-76
2023/03/17 12:19:16;;;;;;;2.92;1.25;;;19.20;57.10;;;;;;5018050;28;20496;-77
2023/03/17 12:21:55;;;;;;;4.65;1.15;;;19.20;57.30;;;;;;5010882;28;20100;-75
2023/03/17 12:24:44;;;;;;;3.08;0.88;;;19.20;57.20;;;;;;5011295;28;20026;-76
2023/03/17 12:27:23;;;;;;;3.38;1.20;;;19.00;56.60;;;;;;4995134;28;20153;-76
2023/03/17 12:30:09;;;;;;;2.95;1.02;;;18.80;57.30;;;;;;5014228;28;20018;-77
2023/03/17 12:32:43;;;;;;;3.90;0.90;;;18.80;56.70;;;;;;5010744;28;20045;-76
2023/03/17 12:35:30;;;;;;;2.33;0.73;;;18.80;57.00;;;;;;4983616;28;20026;-76
2023/03/17 12:37:58;;;;;;;3.53;1.15;;;18.80;56.40;;;;;;4988672;28;20042;-73
2023/03/17 12:40:34;;;;;;;2.58;1.10;;;18.70;57.60;;;;;;5002983;28;20025;-76
2023/03/17 12:43:34;;;;;;;2.95;0.93;;;18.70;57.70;;;;;;5003142;28;20034;-76
2023/03/17 12:46:09;;;;;;;2.83;1.10;;;18.80;58.30;;;;;;4986462;28;20034;-76
2023/03/17 12:49:02;;;;;;;3.20;0.90;;;18.80;57.90;;;;;;4981998;28;20034;-76
2023/03/17 12:52:05;;;;;;;5.85;1.33;;;18.80;58.00;;;;;;5005543;28;20105;-76
2023/03/17 12:54:35;;;;;;;5.55;1.30;;;18.70;57.70;;;;;;5008721;28;20813;-76
2023/03/17 12:57:15;;;;;;;4.90;1.17;;;18.90;58.40;;;;;;5003217;28;20037;-77
2023/03/17 12:59:43;;;;;;;4.63;0.90;;;18.80;58.10;;;;;;5004884;28;20022;-76
2023/03/17 13:02:20;;;;;;;2.42;1.00;;;18.70;57.10;;;;;;5004523;28;20023;-76
2023/03/17 13:04:56;;;;;;;7.32;1.00;;;18.80;56.90;;;;;;5000519;28;20036;-76
2023/03/17 13:07:25;;;;;;;5.00;1.40;;;19.10;56.60;;;;;;4994756;28;20026;-76
2023/03/17 13:09:54;;;;;;;4.38;0.93;;;19.20;55.80;;;;;;5004645;28;20093;-77
2023/03/17 13:12:38;;;;;;;2.03;0.85;;;19.20;56.00;;;;;;5005870;28;20061;-76
2023/03/17 13:15:29;;;;;;;4.00;1.30;;;19.20;54.90;;;;;;5001018;28;20436;-76
2023/03/17 13:18:16;;;;;;;5.10;1.48;;;19.20;54.50;;;;;;4983958;28;20053;-76
2023/03/17 13:20:58;;;;;;;3.22;1.15;;;19.10;54.60;;;;;;5001524;28;20130;-76
2023/03/17 13:23:42;;;;;;;4.63;0.90;;;19.20;55.60;;;;;;4998719;28;20029;-76
2023/03/17 13:26:12;;;;;;;3.33;0.80;;;19.30;56.70;;;;;;4999105;28;20036;-76
2023/03/17 13:28:39;;;;;;;3.80;1.08;;;19.30;55.10;;;;;;4994486;28;20053;-76
2023/03/17 13:31:15;;;;;;;4.18;1.42;;;19.20;55.20;;;;;;5008117;28;20077;-75
2023/03/17 13:33:48;;;;;;;5.70;1.10;;;19.00;55.50;;;;;;5018249;28;20022;-76
2023/03/17 13:36:18;;;;;;;4.15;1.02;;;18.80;55.30;;;;;;5014227;28;20103;-75
2023/03/17 13:39:05;;;;;;;5.20;1.23;;;18.80;55.50;;;;;;5018482;28;20026;-75
2023/03/17 13:41:54;;;;;;;4.95;1.10;;;18.80;56.20;;;;;;4998692;28;20034;-77
2023/03/17 13:44:37;;;;;;;7.18;2.28;;;19.00;55.80;;;;;;5007876;28;20109;-76
2023/03/17 13:47:21;;;;;;;5.13;0.95;;;19.10;56.50;;;;;;5006891;28;20029;-77
2023/03/17 13:49:51;;;;;;;5.20;0.70;;;19.00;55.30;;;;;;5007827;28;20034;-76
2023/03/17 13:52:32;;;;;;;7.45;1.23;;;18.80;55.30;;;;;;5014303;28;20109;-77
2023/03/17 13:55:24;;;;;;;4.78;1.40;;;18.80;56.50;;;;;;5017923;28;20049;-76
2023/03/17 13:58:10;;;;;;;3.97;1.13;;;18.80;55.40;;;;;;4995604;28;20509;-76
2023/03/17 14:00:43;;;;;;;6.63;0.98;;;18.80;56.10;;;;;;5005515;28;20062;-76
2023/03/17 14:03:34;;;;;;;5.85;0.80;;;18.70;55.90;;;;;;5003773;28;20184;-76
2023/03/17 14:06:04;;;;;;;7.43;2.10;;;18.70;57.20;;;;;;5004340;28;20039;-76
2023/03/17 14:08:40;;;;;;;5.10;1.00;;;18.50;57.70;;;;;;5010561;28;20018;-76
2023/03/17 14:11:16;;;;;;;4.68;1.80;;;18.40;59.10;;;;;;5008250;28;20428;-76
2023/03/17 14:14:13;;;;;;;5.72;1.30;;;18.30;62.10;;;;;;4998307;28;20575;-76
2023/03/17 14:16:46;;;;;;;9.15;1.55;;;18.10;63.70;;;;;;5005219;28;20026;-74
2023/03/17 14:19:20;;;;;;;8.27;1.30;;;17.90;64.40;;;;;;5004529;28;20045;-75
2023/03/17 14:21:45;;;;;;;4.85;1.02;;;17.70;64.80;;;;;;5006340;28;20034;-76
2023/03/17 14:24:32;;;;;;;3.67;1.13;;;17.60;64.60;;;;;;5007493;28;20563;-75
2023/03/17 14:27:06;;;;;;;6.00;0.98;;;17.60;65.70;;;;;;5010212;28;20030;-76
2023/03/17 14:29:32;;;;;;;7.50;1.42;;;17.50;65.70;;;;;;5006995;28;20030;-75
2023/03/17 14:32:16;;;;;;;4.82;1.00;;;17.40;66.60;;;;;;5004963;28;20136;-76
2023/03/17 14:34:47;;;;;;;4.18;1.23;;;17.40;66.60;;;;;;5009225;28;20029;-76
2023/03/17 14:37:14;;;;;;;9.32;1.63;;;17.30;67.00;;;;;;5007991;28;20023;-77
2023/03/17 14:39:51;;;;;;;8.88;1.42;;;17.10;68.50;;;;;;5007709;28;20021;-76
2023/03/17 14:42:29;;;;;;;5.60;1.33;;;17.10;68.70;;;;;;4987562;28;20030;-76
2023/03/17 14:45:04;;;;;;;2.92;0.85;;;17.00;68.50;;;;;;5004217;28;20026;-77
2023/03/17 14:47:38;;;;;;;7.05;1.05;;;16.90;69.40;;;;;;5006125;28;20516;-77
2023/03/17 14:50:13;;;;;;;2.85;1.20;;;17.00;69.70;;;;;;5006669;28;20101;-75
2023/03/17 14:52:41;;;;;;;1.67;0.90;;;16.90;68.80;;;;;;5005735;28;20501;-76
2023/03/17 14:55:13;;;;;;;3.05;0.93;;;16.90;69.60;;;;;;5000197;28;20030;-76
2023/03/17 14:57:38;;;;;;;3.78;1.35;;;17.00;69.40;;;;;;5003589;28;20128;-75
2023/03/17 15:00:30;;;;;;;5.90;1.08;;;17.10;68.60;;;;;;5005247;28;20030;-75
2023/03/17 15:02:58;;;;;;;2.25;1.10;;;17.00;68.80;;;;;;4983189;28;20121;-76
2023/03/17 15:05:36;;;;;;;4.45;1.15;;;17.00;68.50;;;;;;5007214;28;20023;-76
2023/03/17 15:08:02;;;;;;;2.53;1.20;;;17.00;68.50;;;;;;5005067;28;20034;-75
2023/03/17 15:10:32;;;;;;;8.70;1.67;;;16.90;68.40;;;;;;5006963;28;20077;-76
2023/03/17 15:13:04;;;;;;;5.18;1.17;;;16.90;68.60;;;;;;5004709;28;20439;-76
2023/03/17 15:15:36;;;;;;;7.57;1.48;;;16.90;68.90;;;;;;5006476;28;20022;-75
2023/03/17 15:18:10;;;;;;;4.63;0.93;;;16.90;69.20;;;;;;5006934;28;20026;-76
2023/03/17 15:20:36;;;;;;;5.63;1.52;;;16.90;69.40;;;;;;5005191;28;20105;-76
2023/03/17 15:23:17;;;;;;;7.22;1.27;;;16.90;69.70;;;;;;5006831;28;20090;-75
2023/03/17 15:25:50;;;;;;;3.00;0.95;;;16.80;69.50;;;;;;5005437;28;20030;-76
2023/03/17 15:28:18;;;;;;;3.53;1.10;;;16.80;69.90;;;;;;4989935;28;20030;-75
2023/03/17 15:30:46;;;;;;;6.13;1.55;;;16.70;69.40;;;;;;5006086;28;20592;-77
2023/03/17 15:33:35;;;;;;;6.65;1.48;;;16.60;69.50;;;;;;5003745;28;20040;-73
2023/03/17 15:36:01;;;;;;;3.90;1.67;;;16.30;70.50;;;;;;5002887;28;20018;-77
2023/03/17 15:38:28;;;;;;;4.60;1.27;;;16.40;70.40;;;;;;5007240;28;20606;-76
2023/03/17 15:40:54;;;;;;;5.90;1.60;;;16.30;69.20;;;;;;5007116;28;20025;-77
2023/03/17 15:43:20;;;;;;;5.05;0.95;;;16.40;69.20;;;;;;4987368;28;20033;-77
2023/03/17 15:45:51;;;;;;;1.88;0.80;;;16.30;69.30;;;;;;4985062;28;20038;-78
2023/03/17 15:48:26;;;;;;;8.98;2.03;;;16.40;69.70;;;;;;4986732;28;20030;-76
2023/03/17 15:50:54;;;;;;;2.72;1.13;;;16.50;68.50;;;;;;4985840;28;20093;-75
2023/03/17 15:53:20;;;;;;;2.50;1.13;;;16.60;68.10;;;;;;5002972;28;20034;-75
2023/03/17 15:55:46;;;;;;;5.00;1.85;;;16.60;67.70;;;;;;5002978;28;20093;-74
2023/03/17 15:58:12;;;;;;;3.88;1.10;;;16.70;67.40;;;;;;5004801;28;20018;-74
2023/03/17 16:00:39;;;;;;;5.88;1.20;;;16.80;66.80;;;;;;5005493;28;20019;-74
2023/03/17 16:03:13;;;;;;;2.55;0.95;;;16.60;66.00;;;;;;5006741;28;20029;-74
2023/03/17 16:05:38;;;;;;;2.92;1.52;;;16.60;65.00;;;;;;5008060;28;20034;-74
2023/03/17 16:08:04;;;;;;;4.82;1.13;;;16.60;65.30;;;;;;5001895;28;20156;-74
2023/03/17 16:10:31;;;;;;;6.03;1.10;;;16.50;65.00;;;;;;5005620;28;20515;-74
2023/03/17 16:12:57;;;;;;;2.35;0.85;;;16.50;65.30;;;;;;5007044;28;20058;-74
2023/03/17 16:15:25;;;;;;;3.30;1.40;;;16.50;65.50;;;;;;5004796;28;20029;-74
2023/03/17 16:17:54;;;;;;;4.65;1.52;;;16.50;65.50;;;;;;5005265;28;20053;-74
2023/03/17 16:20:30;;;;;;;6.45;1.40;;;16.50;65.60;;;;;;5007499;28;20026;-73
2023/03/17 16:22:59;;;;;;;4.40;1.30;;;16.50;65.70;;;;;;5006432;28;20056;-74
2023/03/17 16:25:28;;;;;;;3.72;1.35;;;16.60;65.80;;;;;;5004914;28;20030;-74
2023/03/17 16:27:55;;;;;;;4.38;1.63;;;16.70;65.70;;;;;;4992501;28;20030;-74
2023/03/17 16:30:24;;;;;;;3.65;1.20;;;16.80;65.50;;;;;;5004456;28;20050;-74
2023/03/17 16:32:51;;;;;;;7.63;1.35;;;16.80;66.00;;;;;;5005617;28;20014;-74
2023/03/17 16:35:22;;;;;;;8.05;1.58;;;16.90;65.50;;;;;;5007932;28;20097;-74
2023/03/17 16:37:53;;;;;;;4.43;1.17;;;16.90;65.40;;;;;;5004432;28;20038;-74
2023/03/17 16:40:18;;;;;;;;;;;16.80;64.50;;;;;;5005363;28;20484;-75
2023/03/17 16:42:44;;;;;;;3.00;1.08;;;16.80;65.20;;;;;;5004209;28;19928;-75
2023/03/17 16:45:25;;;;;;;3.58;1.38;;;16.70;64.90;;;;;;5008440;28;20644;-75
2023/03/17 16:47:52;;;;;;;6.75;1.52;;;16.50;65.20;;;;;;4992138;28;20058;-74
2023/03/17 16:50:21;;;;;;;4.57;1.15;;;16.50;65.20;;;;;;5008957;28;20041;-75
2023/03/17 16:52:47;;;;;;;5.18;1.15;;;16.60;64.10;;;;;;5009610;28;20530;-75
2023/03/17 16:55:14;;;;;;;3.38;1.08;;;16.60;64.10;;;;;;4993310;28;20030;-75
2023/03/17 16:57:43;;;;;;;7.68;1.65;;;16.80;63.40;;;;;;5008240;28;20065;-75
2023/03/17 17:00:16;;;;;;;6.18;1.45;;;16.80;63.70;;;;;;5010076;28;20022;-75
2023/03/17 17:02:43;;;;;;;6.25;2.03;;;16.90;63.80;;;;;;5008706;28;20022;-75
2023/03/17 17:05:16;;;;;;;3.85;1.52;;;16.90;63.80;;;;;;4993239;28;20076;-75
2023/03/17 17:07:43;;;;;;;4.85;1.55;;;17.00;64.00;;;;;;5008226;28;20509;-75
2023/03/17 17:10:11;;;;;;;6.10;0.90;;;16.80;63.40;;;;;;5006922;28;20555;-75
2023/03/17 17:12:37;;;;;;;4.43;1.27;;;16.60;63.20;;;;;;5011169;28;20048;-74
2023/03/17 17:15:03;;;;;;;3.67;0.75;;;16.40;63.30;;;;;;4990607;28;20053;-75
2023/03/17 17:17:29;;;;;;;3.88;1.30;;;16.30;62.80;;;;;;5008093;28;20165;-75
2023/03/17 17:19:55;;;;;;;5.45;1.10;;;16.10;62.70;;;;;;5008513;28;20070;-75
2023/03/17 17:22:21;;;;;;;2.25;0.70;;;15.90;63.30;;;;;;4992229;28;20497;-75
2023/03/17 17:24:46;;;;;;;3.53;1.05;;;15.80;63.90;;;;;;5007817;28;20033;-75
2023/03/17 17:27:12;;;;;;;3.72;1.38;;;15.80;64.30;;;;;;5004486;28;20053;-75
2023/03/17 17:29:37;;;;;;;2.45;0.95;;;15.80;64.70;;;;;;4991092;28;20033;-75
2023/03/17 17:32:03;;;;;;;5.78;1.38;;;15.80;65.30;;;;;;4988280;28;20144;-75
2023/03/17 17:34:29;;;;;;;3.13;1.20;;;15.80;65.40;;;;;;5006793;28;20081;-76
2023/03/17 17:36:57;;;;;;;3.33;1.08;;;15.70;65.50;;;;;;5005616;28;20023;-76
2023/03/17 17:39:23;;;;;;;2.70;1.20;;;15.70;66.10;;;;;;5000054;28;20053;-74
2023/03/17 17:41:49;;;;;;;5.38;1.35;;;15.80;66.40;;;;;;5005867;28;20506;-73
2023/03/17 17:44:15;;;;;;;6.90;1.45;;;15.80;66.70;;;;;;5002522;28;20033;-74
2023/03/17 17:46:41;;;;;;;6.03;1.52;;;15.60;66.70;;;;;;5005797;28;20030;-74
2023/03/17 17:49:07;;;;;;;1.98;0.98;;;15.60;67.00;;;;;;4988395;28;20085;-73
2023/03/17 17:51:32;;;;;;;5.20;1.35;;;15.60;67.30;;;;;;5006916;28;20035;-74
2023/03/17 17:53:58;;;;;;;6.97;1.60;;;15.50;67.50;;;;;;5008028;28;20038;-74
2023/03/17 17:56:24;;;;;;;3.95;1.70;;;15.40;67.80;;;;;;4991194;28;20018;-74
2023/03/17 17:58:50;;;;;;;7.57;1.98;;;15.30;68.20;;;;;;4989147;28;21346;-74
2023/03/17 18:01:20;;;;;;;4.10;1.05;;;15.30;68.30;;;;;;5009816;28;20034;-73
2023/03/17 18:03:46;;;;;;;3.90;1.35;;;15.20;68.70;;;;;;5008324;28;20025;-75
2023/03/17 18:06:12;;;;;;;5.90;1.80;;;15.10;69.00;;;;;;5005261;28;20081;-73
2023/03/17 18:08:38;;;;;;;3.30;1.42;;;15.10;69.20;;;;;;5003988;28;21833;-73
2023/03/17 18:11:05;;;;;;;3.30;1.55;;;15.00;69.70;;;;;;5007895;28;20034;-73
2023/03/17 18:13:31;;;;;;;4.68;1.85;;;15.00;69.80;;;;;;5009058;28;20073;-73
2023/03/17 18:15:57;;;;;;;2.40;1.20;;;15.00;70.00;;;;;;4988290;28;20026;-73
2023/03/17 18:18:22;;;;;;;6.10;1.60;;;15.00;70.00;;;;;;4985334;28;20029;-73
2023/03/17 18:20:48;;;;;;;7.95;1.75;;;15.00;70.20;;;;;;4990126;28;20076;-72
2023/03/17 18:23:15;;;;;;;3.35;1.42;;;14.90;70.20;;;;;;4998640;28;20026;-72
2023/03/17 18:25:40;;;;;;;5.38;1.77;;;14.80;70.80;;;;;;5018016;28;20032;-72
2023/03/17 18:28:06;;;;;;;3.25;1.70;;;14.80;70.90;;;;;;5008087;28;20046;-72
2023/03/17 18:30:33;;;;;;;3.63;1.48;;;14.70;71.10;;;;;;5011879;28;20585;-72
2023/03/17 18:33:05;;;;;;;5.15;1.63;;;14.80;71.00;;;;;;4989178;28;20045;-73
2023/03/17 18:35:30;;;;;;;7.57;2.63;;;14.80;71.00;;;;;;4972027;28;20054;-72
2023/03/17 18:37:57;;;;;;;4.07;1.75;;;14.80;70.90;;;;;;4998249;28;20037;-72